Etusivu
METAR-TAF:

METAR-TAF

Lentoasemat :

Searcy Municipal Airport

Searcy, Arkansas, Yhdysvallat

Leveyspiiri: 35-12-43N, Pituuspiiri: 091-44-14W, korkeus merenpinnasta: 81 m

Tämänhetkinen sää

Tämä raportti tehtiin 52 minuuttia sitten, kello 07.56 UTC
tyyntä
Lämpötila -6°C
Kosteus 100%
Ilmanpaine 1028 hPa
Näkyvyys: 16.1 km
selkeää

METAR: KSRC 110756Z AUTO 00000KT 10SM CLR M06/M06 A3037 RMK AO2 SLP296 T10611061 FZRANO

Aika: 02:48 (08:48 UTC)


TAF: puuttuu

Säähavainnot ja -ennusteet yli 4000 lentoasemalta (METAR- ja TAF-raportit).

Käytössä olevat sääasemat on merkitty karttaan keltaisilla ja punaisilla pisteillä.

Aseta hiiri pisteen päälle nähdäksesi sääaseman nimen.

Klikkaa sitten nähdäksesi säähavainnot ja -ennusteet.

Kartan vaihtaminen: klikkaa mustalla rastilla varustettuja vihreitä pisteitä, niin voit zoomata sisään; viivalla varustettua vihreää pistettä, niin voit zoomata ulos tai vihreitä nuolia, niin pääset viereisille kartoille.


METAR-TAF: